createdAt,value
2019-04-07T00:01:35.492Z,28.17
2019-04-07T00:04:05.295Z,27.07
2019-04-07T00:06:35.069Z,27.67
2019-04-07T00:09:07.067Z,26.23
2019-04-07T00:11:36.728Z,25.03
2019-04-07T00:14:06.158Z,26.90
2019-04-07T00:16:35.443Z,25.67
2019-04-07T00:19:05.417Z,24.90
2019-04-07T00:21:35.275Z,24.93
2019-04-07T00:24:04.718Z,23.67
2019-04-07T00:26:34.023Z,24.87
2019-04-07T00:29:03.338Z,25.37
2019-04-07T00:31:32.703Z,24.07
2019-04-07T00:34:02.054Z,23.27
2019-04-07T00:36:31.362Z,22.67
2019-04-07T00:39:00.756Z,21.83
2019-04-07T00:41:30.096Z,20.80
2019-04-07T00:43:59.992Z,19.93
2019-04-07T00:46:29.623Z,20.10
2019-04-07T00:48:59.434Z,19.40
2019-04-07T00:51:28.853Z,17.80
2019-04-07T00:53:58.147Z,17.87
2019-04-07T00:56:27.983Z,17.37
2019-04-07T00:58:58.062Z,17.47
2019-04-07T01:01:27.492Z,17.10
2019-04-07T01:03:56.888Z,15.60
2019-04-07T01:06:26.881Z,15.67
2019-04-07T01:08:56.891Z,15.47
2019-04-07T01:11:26.701Z,19.23
2019-04-07T01:13:56.265Z,15.80
2019-04-07T01:16:26.200Z,16.13
2019-04-07T01:18:55.757Z,16.67
2019-04-07T01:21:25.078Z,16.77
2019-04-07T01:23:54.507Z,19.20
2019-04-07T01:26:23.921Z,20.70
2019-04-07T01:28:54.518Z,18.40
2019-04-07T01:31:24.294Z,17.47
2019-04-07T01:33:54.285Z,17.90
2019-04-07T01:36:23.928Z,18.10
2019-04-07T01:38:53.322Z,18.90
2019-04-07T01:41:27.809Z,15.97
2019-04-07T01:44:05.398Z,17.30
2019-04-07T01:47:03.479Z,17.50
2019-04-07T01:49:45.137Z,18.00
2019-04-07T01:52:33.774Z,16.73
2019-04-07T01:55:14.645Z,18.07
2019-04-07T01:58:03.256Z,18.73
2019-04-07T02:00:50.552Z,17.93
2019-04-07T02:03:38.155Z,16.27
2019-04-07T02:06:31.197Z,16.43
2019-04-07T02:09:19.519Z,17.93
2019-04-07T02:12:02.697Z,16.03
2019-04-07T02:14:55.058Z,16.47
2019-04-07T02:17:46.150Z,15.57
2019-04-07T02:21:03.378Z,18.37
2019-04-07T02:23:50.660Z,14.17
2019-04-07T02:26:31.013Z,13.43
2019-04-07T02:29:18.067Z,16.13
2019-04-07T02:32:07.879Z,13.23
2019-04-07T02:34:45.540Z,12.83
2019-04-07T02:37:20.701Z,15.80
2019-04-07T02:40:26.922Z,13.37
2019-04-07T02:43:06.847Z,14.27
2019-04-07T02:45:47.804Z,12.33
2019-04-07T02:48:26.569Z,14.10
2019-04-07T02:51:03.188Z,12.93
2019-04-07T02:53:51.003Z,14.97
2019-04-07T02:56:46.150Z,17.43
2019-04-07T02:59:49.702Z,13.40
2019-04-07T03:02:27.239Z,13.30
2019-04-07T03:05:05.998Z,14.00
2019-04-07T03:08:01.567Z,14.13
2019-04-07T03:10:48.585Z,14.83
2019-04-07T03:13:46.470Z,15.03
2019-04-07T03:16:47.506Z,16.07
2019-04-07T03:19:26.483Z,19.47
2019-04-07T03:22:04.193Z,18.37
2019-04-07T03:24:48.357Z,16.27
2019-04-07T03:27:36.576Z,17.53
2019-04-07T03:30:33.163Z,17.07
2019-04-07T03:33:33.519Z,15.80
2019-04-07T03:36:18.538Z,17.87
2019-04-07T03:39:06.475Z,16.90
2019-04-07T03:41:47.259Z,18.40
2019-04-07T03:44:25.496Z,16.20
2019-04-07T03:47:03.306Z,17.47
2019-04-07T03:49:45.951Z,18.27
2019-04-07T03:52:46.856Z,18.50
2019-04-07T03:55:38.531Z,19.97
2019-04-07T03:58:25.998Z,22.20
2019-04-07T04:01:33.215Z,19.83
2019-04-07T04:04:22.328Z,23.43
2019-04-07T04:07:20.206Z,20.73
2019-04-07T04:09:58.169Z,27.83
2019-04-07T04:12:41.608Z,20.90
2019-04-07T04:15:20.757Z,22.80
2019-04-07T04:17:51.171Z,22.27
2019-04-07T04:20:21.517Z,25.50
2019-04-07T04:22:50.997Z,23.77
2019-04-07T04:25:21.248Z,26.70
2019-04-07T04:27:51.093Z,22.10
2019-04-07T04:30:21.156Z,21.77
2019-04-07T04:32:50.736Z,28.77
2019-04-07T04:35:20.124Z,24.80
2019-04-07T04:37:52.324Z,22.20
2019-04-07T04:40:20.747Z,23.47
2019-04-07T04:42:50.597Z,25.07
2019-04-07T04:45:20.283Z,22.63
2019-04-07T04:47:49.584Z,23.60
2019-04-07T04:50:18.908Z,23.00
2019-04-07T04:52:48.730Z,23.43
2019-04-07T04:55:18.887Z,25.17
2019-04-07T04:57:48.660Z,24.50
2019-04-07T05:00:18.746Z,26.93
2019-04-07T05:02:49.440Z,29.20
2019-04-07T05:05:18.986Z,28.50
2019-04-07T05:07:57.807Z,24.33
2019-04-07T05:10:19.388Z,27.90
2019-04-07T05:12:48.770Z,29.53
2019-04-07T05:15:18.127Z,25.93
2019-04-07T05:17:47.486Z,26.70
2019-04-07T05:20:17.312Z,25.53
2019-04-07T05:22:47.408Z,30.37
2019-04-07T05:25:17.401Z,27.40
2019-04-07T05:27:46.985Z,28.90
2019-04-07T05:30:16.843Z,29.80
2019-04-07T05:32:46.907Z,31.13
2019-04-07T05:35:16.420Z,28.83
2019-04-07T05:37:45.934Z,24.87
2019-04-07T05:40:16.546Z,26.50
2019-04-07T05:42:46.588Z,29.63
2019-04-07T05:45:16.084Z,31.30
2019-04-07T05:47:48.728Z,29.40
2019-04-07T05:50:16.631Z,34.70
2019-04-07T05:52:46.583Z,30.77
2019-04-07T05:55:20.626Z,27.90
2019-04-07T05:57:48.519Z,29.73
2019-04-07T06:00:18.847Z,30.20
2019-04-07T06:02:48.563Z,29.50
2019-04-07T06:05:18.634Z,26.50
2019-04-07T06:07:50.493Z,28.10
2019-04-07T06:10:22.302Z,30.53
2019-04-07T06:12:51.124Z,26.63
2019-04-07T06:15:22.248Z,28.77
2019-04-07T06:17:52.170Z,31.73
2019-04-07T06:20:21.560Z,30.37
2019-04-07T06:22:53.612Z,30.50
2019-04-07T06:25:21.954Z,30.07
2019-04-07T06:27:51.871Z,32.10
2019-04-07T06:30:23.286Z,25.27
2019-04-07T06:32:52.869Z,27.07
2019-04-07T06:35:22.471Z,28.67
2019-04-07T06:37:52.076Z,30.63
2019-04-07T06:40:22.283Z,29.07
2019-04-07T06:42:52.398Z,32.17
2019-04-07T06:45:25.451Z,29.33
2019-04-07T06:47:57.102Z,25.27
2019-04-07T06:50:47.705Z,27.00
2019-04-07T06:53:30.187Z,26.77
2019-04-07T06:56:15.384Z,25.80
2019-04-07T06:59:02.559Z,27.10
2019-04-07T07:01:59.172Z,24.73
2019-04-07T07:04:45.810Z,26.33
2019-04-07T07:07:53.275Z,29.43
2019-04-07T07:10:37.788Z,28.10
2019-04-07T07:13:32.402Z,29.13
2019-04-07T07:16:26.074Z,26.77
2019-04-07T07:19:17.484Z,26.73
2019-04-07T07:22:13.138Z,28.00
2019-04-07T07:24:39.646Z,30.47
2019-04-07T07:27:10.571Z,29.10
2019-04-07T07:29:40.063Z,32.17
2019-04-07T07:32:09.462Z,30.27
2019-04-07T07:34:41.411Z,34.43
2019-04-07T07:37:10.537Z,29.83
2019-04-07T07:39:42.660Z,30.70
2019-04-07T07:42:11.435Z,31.30
2019-04-07T07:44:41.800Z,33.97
2019-04-07T07:47:11.932Z,31.57
2019-04-07T07:49:42.457Z,34.80
2019-04-07T07:52:12.540Z,36.87
2019-04-07T07:54:42.936Z,34.27
2019-04-07T07:57:13.379Z,34.37
2019-04-07T07:59:43.223Z,32.70
2019-04-07T08:02:14.749Z,35.87
2019-04-07T08:04:44.307Z,37.27
2019-04-07T08:07:16.479Z,33.60
2019-04-07T08:09:45.227Z,36.20
2019-04-07T08:12:15.175Z,35.23
2019-04-07T08:14:50.259Z,31.73
2019-04-07T08:17:15.903Z,37.57
2019-04-07T08:19:45.653Z,31.67
2019-04-07T08:22:26.168Z,34.97
2019-04-07T08:24:49.632Z,34.37
2019-04-07T08:27:18.147Z,36.43
2019-04-07T08:29:48.496Z,31.50
2019-04-07T08:32:18.709Z,31.43
2019-04-07T08:34:48.092Z,30.67
2019-04-07T08:37:17.933Z,30.03
2019-04-07T08:39:47.627Z,25.37
2019-04-07T08:42:18.711Z,21.97
2019-04-07T08:44:48.061Z,21.30
2019-04-07T08:47:21.202Z,22.23
2019-04-07T08:49:48.388Z,22.30
2019-04-07T08:52:18.516Z,24.83
2019-04-07T08:54:50.562Z,19.77
2019-04-07T08:57:19.688Z,19.50
2019-04-07T08:59:49.544Z,21.43
2019-04-07T09:02:19.181Z,20.90
2019-04-07T09:04:51.221Z,18.77
2019-04-07T09:07:23.394Z,25.23
2019-04-07T09:09:51.709Z,26.93
2019-04-07T09:12:21.773Z,20.87
2019-04-07T09:14:51.777Z,20.47
2019-04-07T09:17:47.426Z,22.90
2019-04-07T09:20:34.674Z,19.97
2019-04-07T09:23:15.541Z,20.07
2019-04-07T09:26:02.689Z,23.13
2019-04-07T09:28:55.807Z,21.27
2019-04-07T09:31:42.880Z,22.40
2019-04-07T09:34:30.243Z,23.30
2019-04-07T09:37:18.360Z,24.00
2019-04-07T09:40:06.782Z,22.00
2019-04-07T09:43:01.005Z,22.30
2019-04-07T09:45:51.856Z,27.30
2019-04-07T09:48:52.856Z,20.07
2019-04-07T09:51:47.251Z,20.53
2019-04-07T09:54:34.343Z,18.53
2019-04-07T09:57:28.548Z,19.20
2019-04-07T10:00:16.040Z,18.30
2019-04-07T10:02:55.710Z,18.93
2019-04-07T10:05:44.074Z,16.33
2019-04-07T10:08:40.675Z,16.07
2019-04-07T10:11:29.560Z,14.00
2019-04-07T10:14:19.546Z,13.13
2019-04-07T10:16:57.768Z,12.13
2019-04-07T10:20:04.346Z,10.83
2019-04-07T10:22:59.529Z,9.70
2019-04-07T10:25:44.533Z,8.73
2019-04-07T10:28:36.696Z,9.33
2019-04-07T10:31:20.789Z,9.07
2019-04-07T10:34:13.202Z,10.40
2019-04-07T10:37:03.688Z,10.30
2019-04-07T10:40:01.738Z,11.30
2019-04-07T10:42:49.147Z,14.00
2019-04-07T10:45:34.063Z,13.57
2019-04-07T10:48:19.101Z,14.43
2019-04-07T10:51:07.884Z,13.60
2019-04-07T10:53:54.929Z,13.80
2019-04-07T10:56:32.021Z,15.43
2019-04-07T10:59:23.163Z,12.87
2019-04-07T11:02:29.445Z,12.57
2019-04-07T11:05:24.384Z,13.27
2019-04-07T11:08:22.093Z,11.63
2019-04-07T11:11:10.372Z,11.97
2019-04-07T11:14:02.115Z,11.67
2019-04-07T11:17:02.490Z,11.07
2019-04-07T11:20:02.989Z,16.27
2019-04-07T11:22:50.110Z,11.57
2019-04-07T11:25:41.512Z,12.90
2019-04-07T11:28:32.658Z,13.23
2019-04-07T11:31:23.606Z,13.33
2019-04-07T11:34:11.253Z,14.43
2019-04-07T11:36:52.906Z,13.40
2019-04-07T11:39:44.636Z,15.37
2019-04-07T11:42:26.095Z,15.23
2019-04-07T11:45:09.237Z,14.80
2019-04-07T11:47:56.958Z,14.93
2019-04-07T11:50:36.287Z,16.63
2019-04-07T11:53:44.177Z,18.50
2019-04-07T11:56:32.194Z,17.23
2019-04-07T11:59:20.335Z,19.33
2019-04-07T12:02:19.830Z,28.47
2019-04-07T12:05:06.504Z,23.23
2019-04-07T12:08:01.735Z,21.10
2019-04-07T12:10:58.574Z,21.43
2019-04-07T12:13:45.202Z,17.67
2019-04-07T12:16:33.802Z,18.93
2019-04-07T12:19:26.043Z,23.90
2019-04-07T12:22:20.693Z,18.37
2019-04-07T12:25:15.804Z,19.80
2019-04-07T12:28:01.474Z,25.73
2019-04-07T12:30:52.976Z,22.77
2019-04-07T12:33:31.199Z,19.47
2019-04-07T12:36:14.895Z,18.33
2019-04-07T12:39:06.149Z,19.30
2019-04-07T12:41:47.664Z,19.33
2019-04-07T12:44:25.660Z,17.13
2019-04-07T12:47:13.407Z,18.47
2019-04-07T12:50:02.106Z,16.30
2019-04-07T12:52:54.030Z,16.97
2019-04-07T12:55:41.729Z,15.77
2019-04-07T12:58:28.666Z,17.17
2019-04-07T13:01:20.004Z,15.13
2019-04-07T13:04:08.782Z,14.50
2019-04-07T13:06:53.449Z,15.77
2019-04-07T13:09:48.077Z,15.83
2019-04-07T13:12:31.055Z,14.83
2019-04-07T13:15:18.359Z,15.23
2019-04-07T13:17:53.993Z,16.10
2019-04-07T13:20:39.706Z,17.33
2019-04-07T13:23:14.158Z,17.17
2019-04-07T13:25:56.659Z,16.70
2019-04-07T13:28:37.074Z,16.20
2019-04-07T13:31:19.105Z,12.87
2019-04-07T13:34:06.485Z,13.00
2019-04-07T13:36:55.298Z,10.63
2019-04-07T13:39:40.693Z,10.83
2019-04-07T13:42:25.432Z,11.27
2019-04-07T13:45:04.594Z,12.40
2019-04-07T13:48:11.606Z,10.73
2019-04-07T13:51:13.152Z,12.03
2019-04-07T13:54:02.172Z,12.20
2019-04-07T13:57:00.179Z,13.90
2019-04-07T13:59:48.819Z,13.47
2019-04-07T14:02:42.153Z,7.73
2019-04-07T14:05:28.455Z,6.77
2019-04-07T14:08:19.920Z,6.90
2019-04-07T14:11:10.177Z,6.30
2019-04-07T14:14:00.212Z,6.27
2019-04-07T14:16:41.270Z,5.70
2019-04-07T14:19:24.195Z,5.23
2019-04-07T14:22:06.794Z,4.93
2019-04-07T14:24:51.550Z,5.90
2019-04-07T14:27:29.734Z,7.50
2019-04-07T14:30:13.689Z,6.47
2019-04-07T14:32:52.043Z,6.50
2019-04-07T14:35:48.831Z,7.10
2019-04-07T14:38:37.799Z,7.30
2019-04-07T14:41:25.811Z,7.37
2019-04-07T14:44:17.298Z,8.10
2019-04-07T14:47:04.170Z,6.23
2019-04-07T14:49:58.444Z,7.63
2019-04-07T14:52:48.260Z,5.87
2019-04-07T14:55:50.147Z,7.40
2019-04-07T14:58:38.905Z,7.13
2019-04-07T15:01:20.264Z,6.17
2019-04-07T15:03:50.108Z,7.60
2019-04-07T15:06:19.527Z,7.20
2019-04-07T15:08:56.838Z,9.57
2019-04-07T15:11:38.707Z,9.97
2019-04-07T15:14:08.296Z,10.40
2019-04-07T15:16:38.270Z,11.17
2019-04-07T15:19:08.398Z,10.50
2019-04-07T15:21:37.964Z,10.83
2019-04-07T15:24:08.542Z,9.77
2019-04-07T15:26:38.965Z,8.93
2019-04-07T15:29:10.687Z,9.27
2019-04-07T15:31:40.550Z,9.70
2019-04-07T15:34:11.930Z,9.07
2019-04-07T15:36:41.466Z,10.43
2019-04-07T15:39:11.086Z,10.33
2019-04-07T15:41:42.520Z,10.10
2019-04-07T15:44:14.062Z,8.40
2019-04-07T15:46:42.705Z,9.73
2019-04-07T15:49:12.670Z,9.17
2019-04-07T15:51:43.113Z,9.50
2019-04-07T15:54:13.475Z,9.53
2019-04-07T15:56:45.427Z,7.87
2019-04-07T15:59:16.526Z,7.67
2019-04-07T16:01:45.048Z,9.37
2019-04-07T16:04:14.346Z,8.77
2019-04-07T16:06:47.103Z,8.33
2019-04-07T16:09:29.697Z,8.20
2019-04-07T16:11:46.861Z,7.87
2019-04-07T16:14:17.595Z,7.50
2019-04-07T16:16:47.289Z,10.00
2019-04-07T16:19:21.972Z,7.50
2019-04-07T16:21:48.252Z,9.57
2019-04-07T16:24:17.897Z,9.63
2019-04-07T16:26:47.955Z,12.30
2019-04-07T16:29:19.053Z,12.93
2019-04-07T16:31:48.926Z,12.70
2019-04-07T16:34:19.139Z,16.53
2019-04-07T16:36:50.987Z,12.23
2019-04-07T16:39:19.897Z,11.07
2019-04-07T16:41:50.169Z,12.93
2019-04-07T16:44:19.641Z,8.97
2019-04-07T16:46:48.989Z,7.97
2019-04-07T16:49:19.271Z,7.70
2019-04-07T16:51:49.431Z,8.27
2019-04-07T16:54:18.760Z,7.63
2019-04-07T16:56:50.814Z,7.43
2019-04-07T16:59:19.449Z,8.00
2019-04-07T17:01:49.682Z,7.70
2019-04-07T17:04:20.098Z,7.80
2019-04-07T17:06:59.553Z,8.43
2019-04-07T17:09:24.760Z,7.27
2019-04-07T17:11:51.970Z,7.33
2019-04-07T17:14:22.483Z,7.87
2019-04-07T17:16:52.264Z,7.10
2019-04-07T17:19:21.647Z,6.30
2019-04-07T17:21:51.801Z,5.90
2019-04-07T17:24:25.029Z,5.20
2019-04-07T17:26:52.919Z,5.60
2019-04-07T17:29:23.255Z,6.80
2019-04-07T17:31:53.053Z,5.80
2019-04-07T17:34:22.914Z,6.17
2019-04-07T17:36:55.977Z,5.97
2019-04-07T17:39:51.426Z,6.90
2019-04-07T17:42:25.604Z,6.17
2019-04-07T17:45:02.240Z,6.53
2019-04-07T17:47:49.756Z,6.60
2019-04-07T17:50:37.062Z,6.53
2019-04-07T17:53:21.284Z,8.73
2019-04-07T17:56:16.295Z,8.77
2019-04-07T17:59:00.692Z,5.80
2019-04-07T18:01:57.963Z,6.07
2019-04-07T18:04:55.176Z,6.07
2019-04-07T18:07:52.455Z,6.27
2019-04-07T18:10:44.706Z,7.07
2019-04-07T18:13:43.832Z,8.00
2019-04-07T18:16:18.045Z,7.00
2019-04-07T18:19:05.913Z,7.40
2019-04-07T18:21:53.888Z,6.33
2019-04-07T18:24:36.312Z,7.37
2019-04-07T18:27:17.157Z,7.97
2019-04-07T18:30:08.436Z,10.33
2019-04-07T18:33:00.789Z,7.73
2019-04-07T18:35:48.709Z,8.90
2019-04-07T18:38:37.445Z,8.17
2019-04-07T18:41:41.916Z,9.10
2019-04-07T18:44:22.838Z,8.53
2019-04-07T18:47:08.629Z,8.87
2019-04-07T18:49:55.544Z,8.57
2019-04-07T18:52:54.327Z,10.07
2019-04-07T18:55:57.995Z,10.73
2019-04-07T18:58:51.068Z,10.43
2019-04-07T19:01:56.222Z,11.63
2019-04-07T19:04:38.063Z,10.40
2019-04-07T19:07:19.308Z,11.30
2019-04-07T19:10:09.442Z,10.40
2019-04-07T19:13:05.710Z,9.83
2019-04-07T19:16:11.845Z,10.07
2019-04-07T19:19:10.622Z,10.17
2019-04-07T19:21:57.463Z,10.00
2019-04-07T19:24:44.678Z,9.40
2019-04-07T19:27:33.239Z,9.53
2019-04-07T19:30:22.577Z,10.73
2019-04-07T19:33:29.742Z,9.93
2019-04-07T19:36:33.468Z,10.70
2019-04-07T19:39:23.613Z,12.97
2019-04-07T19:42:08.998Z,10.73
2019-04-07T19:45:10.086Z,10.97
2019-04-07T19:48:05.040Z,9.90
2019-04-07T19:50:55.649Z,10.13
2019-04-07T19:53:37.281Z,10.57
2019-04-07T19:56:25.216Z,13.10
2019-04-07T19:59:30.097Z,19.50
2019-04-07T20:02:07.532Z,20.47
2019-04-07T20:05:02.020Z,16.37
2019-04-07T20:07:42.057Z,14.77
2019-04-07T20:10:33.772Z,14.93
2019-04-07T20:13:21.955Z,14.37
2019-04-07T20:16:11.831Z,12.77
2019-04-07T20:19:10.852Z,12.97
2019-04-07T20:22:11.216Z,11.17
2019-04-07T20:24:58.648Z,13.10
2019-04-07T20:27:36.127Z,13.47
2019-04-07T20:30:17.803Z,14.37
2019-04-07T20:32:56.727Z,14.07
2019-04-07T20:35:57.108Z,14.10
2019-04-07T20:38:51.209Z,13.30
2019-04-07T20:41:43.169Z,12.67
2019-04-07T20:44:35.654Z,11.20
2019-04-07T20:47:17.625Z,11.80
2019-04-07T20:49:56.758Z,10.53
2019-04-07T20:52:36.263Z,9.80
2019-04-07T20:55:21.257Z,8.20
2019-04-07T20:58:25.765Z,9.00
2019-04-07T21:01:20.912Z,9.53
2019-04-07T21:04:19.974Z,9.30
2019-04-07T21:07:08.461Z,10.13
2019-04-07T21:09:43.856Z,11.00
2019-04-07T21:12:19.331Z,11.03
2019-04-07T21:15:16.925Z,10.20
2019-04-07T21:18:00.538Z,10.50
2019-04-07T21:20:52.564Z,10.40
2019-04-07T21:23:57.346Z,10.40
2019-04-07T21:26:35.969Z,8.43
2019-04-07T21:29:30.524Z,9.17
2019-04-07T21:32:10.559Z,8.57
2019-04-07T21:35:00.351Z,7.43
2019-04-07T21:37:47.730Z,7.87
2019-04-07T21:40:39.523Z,7.27
2019-04-07T21:43:18.900Z,8.63
2019-04-07T21:46:26.094Z,7.23
2019-04-07T21:49:14.542Z,10.53
2019-04-07T21:51:57.030Z,9.80
2019-04-07T21:54:35.689Z,10.37
2019-04-07T21:57:25.558Z,14.23
2019-04-07T22:00:16.755Z,13.43
2019-04-07T22:03:01.323Z,11.23
2019-04-07T22:05:43.280Z,10.83
2019-04-07T22:08:25.257Z,8.40
2019-04-07T22:10:55.376Z,9.83
2019-04-07T22:13:25.826Z,18.33
2019-04-07T22:15:59.319Z,16.23
2019-04-07T22:18:26.813Z,13.50
2019-04-07T22:20:57.062Z,17.30
2019-04-07T22:23:29.608Z,17.80
2019-04-07T22:25:57.562Z,15.50
2019-04-07T22:28:28.395Z,14.30
2019-04-07T22:30:57.932Z,11.90
2019-04-07T22:33:30.118Z,10.90
2019-04-07T22:35:59.708Z,9.57
2019-04-07T22:38:30.301Z,12.53
2019-04-07T22:41:00.526Z,22.50
2019-04-07T22:43:30.120Z,23.87
2019-04-07T22:46:07.659Z,20.60
2019-04-07T22:48:31.002Z,12.80
2019-04-07T22:51:02.561Z,7.33
2019-04-07T22:53:31.541Z,7.23
2019-04-07T22:56:04.780Z,5.53
2019-04-07T22:58:31.952Z,6.23
2019-04-07T23:01:01.274Z,5.80
2019-04-07T23:03:31.371Z,5.00
2019-04-07T23:06:01.147Z,5.20
2019-04-07T23:08:30.526Z,5.20
2019-04-07T23:11:00.093Z,7.90
2019-04-07T23:13:30.045Z,5.77
2019-04-07T23:16:08.763Z,7.23
2019-04-07T23:18:31.688Z,6.23
2019-04-07T23:21:01.318Z,6.23
2019-04-07T23:23:31.080Z,7.17
2019-04-07T23:26:00.491Z,9.80
2019-04-07T23:28:30.669Z,8.13
2019-04-07T23:31:00.290Z,7.60
2019-04-07T23:33:29.835Z,8.10
2019-04-07T23:35:59.761Z,6.10
2019-04-07T23:38:30.333Z,5.60
2019-04-07T23:40:59.888Z,4.80
2019-04-07T23:43:29.216Z,4.33
2019-04-07T23:45:58.583Z,7.50
2019-04-07T23:48:28.428Z,7.40
2019-04-07T23:50:58.310Z,4.97
2019-04-07T23:54:04.332Z,5.10
2019-04-07T23:56:33.788Z,4.37
2019-04-07T23:59:03.075Z,7.10
